createdAt,value
2023-05-12T00:02:14.137Z,12.48
2023-05-12T00:04:40.935Z,12.43
2023-05-12T00:07:07.676Z,12.37
2023-05-12T00:09:34.558Z,12.32
2023-05-12T00:12:02.080Z,12.28
2023-05-12T00:14:28.734Z,12.22
2023-05-12T00:16:55.381Z,12.18
2023-05-12T00:19:22.186Z,12.16
2023-05-12T00:21:48.771Z,12.12
2023-05-12T00:24:15.328Z,12.10
2023-05-12T00:26:42.112Z,12.08
2023-05-12T00:29:08.766Z,12.05
2023-05-12T00:31:35.520Z,12.06
2023-05-12T00:34:02.249Z,12.04
2023-05-12T00:36:28.967Z,12.04
2023-05-12T00:38:55.529Z,12.05
2023-05-12T00:41:22.355Z,12.04
2023-05-12T00:43:49.052Z,12.06
2023-05-12T00:46:15.978Z,12.08
2023-05-12T00:48:43.452Z,12.09
2023-05-12T00:51:10.417Z,12.10
2023-05-12T00:53:48.276Z,12.13
2023-05-12T00:56:19.047Z,12.14
2023-05-12T00:58:46.821Z,12.17
2023-05-12T01:01:14.948Z,12.18
2023-05-12T01:03:42.223Z,12.20
2023-05-12T01:06:39.109Z,12.20
2023-05-12T01:09:07.856Z,12.24
2023-05-12T01:11:34.609Z,12.23
2023-05-12T01:14:01.369Z,12.25
2023-05-12T01:16:33.153Z,12.25
2023-05-12T01:19:04.034Z,12.28
2023-05-12T01:21:31.057Z,12.30
2023-05-12T01:24:06.206Z,12.31
2023-05-12T01:26:33.181Z,12.36
2023-05-12T01:29:01.322Z,12.28
2023-05-12T01:31:29.248Z,12.37
2023-05-12T01:33:56.483Z,12.31
2023-05-12T01:36:24.286Z,12.41
2023-05-12T01:38:51.608Z,12.42
2023-05-12T01:41:18.322Z,12.43
2023-05-12T01:43:44.975Z,12.44
2023-05-12T01:46:12.692Z,12.44
2023-05-12T01:48:41.073Z,12.47
2023-05-12T01:51:08.733Z,12.46
2023-05-12T01:53:36.282Z,12.45
2023-05-12T01:56:02.975Z,12.45
2023-05-12T01:58:31.569Z,12.46
2023-05-12T02:00:59.360Z,12.46
2023-05-12T02:03:27.020Z,12.46
2023-05-12T02:05:57.054Z,12.47
2023-05-12T02:08:24.150Z,12.46
2023-05-12T02:10:51.007Z,12.45
2023-05-12T02:13:17.638Z,12.45
2023-05-12T02:15:44.379Z,12.45
2023-05-12T02:18:11.113Z,12.43
2023-05-12T02:20:39.164Z,12.34
2023-05-12T02:23:05.969Z,12.41
2023-05-12T02:25:33.602Z,12.43
2023-05-12T02:28:00.371Z,12.42
2023-05-12T02:30:27.181Z,12.40
2023-05-12T02:32:53.906Z,12.38
2023-05-12T02:35:20.631Z,12.37
2023-05-12T02:37:47.879Z,12.36
2023-05-12T02:40:15.935Z,12.37
2023-05-12T02:42:42.642Z,12.34
2023-05-12T02:45:10.228Z,12.34
2023-05-12T02:47:37.258Z,12.31
2023-05-12T02:50:05.090Z,12.28
2023-05-12T02:52:32.244Z,12.26
2023-05-12T02:54:58.996Z,12.23
2023-05-12T02:57:25.643Z,12.20
2023-05-12T02:59:52.379Z,12.20
2023-05-12T03:02:19.147Z,12.18
2023-05-12T03:04:45.776Z,12.19
2023-05-12T03:07:12.722Z,12.18
2023-05-12T03:09:39.486Z,12.19
2023-05-12T03:12:06.543Z,12.20
2023-05-12T03:14:33.174Z,12.19
2023-05-12T03:16:59.983Z,12.20
2023-05-12T03:19:26.576Z,12.20
2023-05-12T03:21:53.932Z,12.21
2023-05-12T03:24:20.694Z,12.20
2023-05-12T03:26:47.369Z,12.20
2023-05-12T03:29:14.343Z,12.20
2023-05-12T03:31:41.178Z,12.22
2023-05-12T03:34:07.902Z,12.21
2023-05-12T03:36:34.660Z,12.21
2023-05-12T03:39:01.759Z,12.20
2023-05-12T03:41:28.419Z,12.21
2023-05-12T03:43:55.083Z,12.23
2023-05-12T03:46:21.746Z,12.24
2023-05-12T03:48:48.622Z,12.25
2023-05-12T03:51:15.463Z,12.25
2023-05-12T03:53:42.124Z,12.27
2023-05-12T03:56:08.908Z,12.29
2023-05-12T03:58:35.527Z,12.30
2023-05-12T04:01:02.543Z,12.31
2023-05-12T04:03:29.924Z,12.31
2023-05-12T04:06:03.494Z,12.30
2023-05-12T04:08:30.559Z,12.32
2023-05-12T04:10:58.320Z,12.34
2023-05-12T04:13:25.730Z,12.35
2023-05-12T04:15:55.502Z,12.38
2023-05-12T04:18:22.948Z,12.40
2023-05-12T04:20:49.716Z,12.42
2023-05-12T04:23:16.468Z,12.43
2023-05-12T04:25:43.327Z,12.45
2023-05-12T04:28:12.060Z,12.44
2023-05-12T04:30:40.649Z,12.46
2023-05-12T04:33:07.352Z,12.46
2023-05-12T04:35:34.289Z,12.49
2023-05-12T04:38:01.650Z,12.49
2023-05-12T04:40:28.462Z,12.50
2023-05-12T04:42:55.410Z,12.49
2023-05-12T04:45:22.337Z,12.52
2023-05-12T04:47:49.242Z,12.54
2023-05-12T04:50:15.909Z,12.56
2023-05-12T04:52:42.522Z,12.58
2023-05-12T04:55:09.518Z,12.61
2023-05-12T04:57:36.160Z,12.61
2023-05-12T05:00:04.432Z,12.64
2023-05-12T05:02:31.842Z,12.68
2023-05-12T05:04:58.830Z,12.70
2023-05-12T05:07:28.371Z,12.74
2023-05-12T05:09:55.361Z,12.79
2023-05-12T05:12:22.056Z,12.83
2023-05-12T05:14:48.847Z,12.88
2023-05-12T05:17:15.748Z,12.94
2023-05-12T05:19:55.117Z,13.02
2023-05-12T05:22:25.529Z,13.09
2023-05-12T05:24:52.268Z,13.17
2023-05-12T05:27:19.230Z,13.26
2023-05-12T05:29:46.008Z,13.35
2023-05-12T05:32:12.676Z,13.47
2023-05-12T05:34:39.632Z,13.55
2023-05-12T05:37:06.393Z,13.64
2023-05-12T05:39:33.292Z,13.70
2023-05-12T05:42:00.215Z,13.76
2023-05-12T05:44:26.900Z,13.82
2023-05-12T05:46:54.721Z,13.85
2023-05-12T05:49:23.412Z,13.89
2023-05-12T05:51:50.708Z,13.92
2023-05-12T05:54:17.739Z,13.96
2023-05-12T05:56:45.334Z,14.01
2023-05-12T05:59:11.975Z,14.05
2023-05-12T06:01:38.866Z,14.09
2023-05-12T06:04:05.790Z,14.15
2023-05-12T06:06:32.513Z,14.22
2023-05-12T06:09:00.109Z,14.28
2023-05-12T06:11:27.209Z,14.32
2023-05-12T06:13:53.814Z,14.39
2023-05-12T06:16:20.548Z,14.44
2023-05-12T06:18:47.321Z,14.47
2023-05-12T06:21:13.909Z,14.51
2023-05-12T06:23:40.570Z,14.54
2023-05-12T06:26:07.137Z,14.57
2023-05-12T06:28:33.960Z,14.61
2023-05-12T06:31:00.689Z,14.66
2023-05-12T06:33:27.273Z,14.73
2023-05-12T06:35:53.975Z,14.75
2023-05-12T06:38:20.640Z,14.81
2023-05-12T06:40:47.577Z,14.86
2023-05-12T06:43:14.226Z,14.94
2023-05-12T06:45:44.592Z,14.99
2023-05-12T06:48:11.456Z,15.04
2023-05-12T06:50:38.227Z,15.11
2023-05-12T06:53:04.884Z,15.19
2023-05-12T06:55:31.542Z,15.29
2023-05-12T06:57:58.306Z,15.39
2023-05-12T07:00:26.089Z,15.50
2023-05-12T07:02:53.081Z,15.57
2023-05-12T07:05:20.268Z,15.68
2023-05-12T07:07:47.012Z,15.76
2023-05-12T07:10:13.765Z,15.84
2023-05-12T07:12:41.677Z,15.83
2023-05-12T07:15:08.848Z,15.97
2023-05-12T07:17:35.617Z,16.06
2023-05-12T07:20:02.355Z,16.09
2023-05-12T07:22:29.148Z,16.15
2023-05-12T07:24:56.033Z,16.19
2023-05-12T07:27:22.833Z,16.25
2023-05-12T07:29:49.455Z,16.30
2023-05-12T07:32:16.018Z,16.35
2023-05-12T07:34:42.720Z,16.35
2023-05-12T07:37:09.299Z,16.35
2023-05-12T07:39:36.054Z,16.38
2023-05-12T07:42:02.782Z,16.42
2023-05-12T07:44:29.776Z,16.45
2023-05-12T07:46:56.505Z,16.48
2023-05-12T07:49:23.181Z,16.48
2023-05-12T07:51:49.798Z,16.49
2023-05-12T07:54:16.581Z,16.50
2023-05-12T07:56:43.278Z,16.55
2023-05-12T07:59:09.872Z,16.55
2023-05-12T08:01:36.452Z,16.56
2023-05-12T08:04:03.273Z,16.53
2023-05-12T08:06:30.006Z,16.48
2023-05-12T08:08:56.582Z,16.42
2023-05-12T08:11:23.877Z,16.35
2023-05-12T08:13:50.491Z,16.27
2023-05-12T08:16:17.220Z,16.27
2023-05-12T08:18:44.146Z,16.28
2023-05-12T08:21:11.020Z,16.40
2023-05-12T08:23:37.730Z,16.34
2023-05-12T08:26:04.918Z,16.34
2023-05-12T08:28:31.647Z,16.32
2023-05-12T08:30:58.881Z,16.31
2023-05-12T08:33:25.609Z,16.30
2023-05-12T08:35:52.396Z,16.34
2023-05-12T08:38:19.190Z,16.36
2023-05-12T08:41:16.282Z,16.36
2023-05-12T08:43:51.531Z,16.35
2023-05-12T08:46:18.723Z,16.39
2023-05-12T08:48:46.755Z,16.45
2023-05-12T08:51:14.006Z,16.49
2023-05-12T08:53:41.950Z,16.52
2023-05-12T08:58:42.102Z,16.65
2023-05-12T09:01:11.867Z,16.73
2023-05-12T09:03:38.898Z,16.82
2023-05-12T09:06:06.727Z,16.86
2023-05-12T09:08:33.726Z,16.93
2023-05-12T09:11:01.094Z,16.98
2023-05-12T09:13:52.621Z,17.01
2023-05-12T09:16:24.894Z,17.09
2023-05-12T09:18:54.541Z,17.15
2023-05-12T09:21:21.886Z,17.18
2023-05-12T09:23:57.743Z,17.27
2023-05-12T09:26:26.596Z,17.35
2023-05-12T09:28:54.809Z,17.45
2023-05-12T09:31:24.022Z,17.52
2023-05-12T09:33:52.225Z,17.57
2023-05-12T09:36:22.724Z,17.67
2023-05-12T09:38:59.947Z,17.73
2023-05-12T09:41:26.673Z,17.80
2023-05-12T09:43:53.410Z,17.87
2023-05-12T09:46:20.180Z,17.95
2023-05-12T09:48:49.415Z,17.97
2023-05-12T09:51:17.492Z,17.93
2023-05-12T09:53:44.165Z,17.85
2023-05-12T09:56:13.132Z,17.95
2023-05-12T09:58:44.873Z,17.95
2023-05-12T10:01:22.528Z,17.97
2023-05-12T10:03:55.676Z,17.91
2023-05-12T10:06:27.832Z,17.78
2023-05-12T10:09:00.061Z,17.67
2023-05-12T10:11:29.264Z,17.58
2023-05-12T10:13:57.308Z,17.49
2023-05-12T10:16:24.405Z,17.34
2023-05-12T10:18:51.573Z,17.35
2023-05-12T10:21:19.111Z,17.31
2023-05-12T10:23:46.789Z,17.30
2023-05-12T10:26:14.443Z,17.30
2023-05-12T10:28:41.427Z,17.29
2023-05-12T10:34:30.550Z,17.30
2023-05-12T10:36:58.345Z,17.33
2023-05-12T10:39:29.585Z,17.35
2023-05-12T10:42:06.841Z,17.36
2023-05-12T10:44:33.526Z,17.38
2023-05-12T10:47:00.179Z,17.41
2023-05-12T10:49:34.572Z,17.41
2023-05-12T10:52:01.198Z,17.42
2023-05-12T10:54:27.857Z,17.39
2023-05-12T10:56:59.575Z,17.36
2023-05-12T10:59:26.969Z,17.38
2023-05-12T11:02:16.840Z,17.36
2023-05-12T11:04:52.808Z,17.40
2023-05-12T11:07:24.133Z,17.46
2023-05-12T11:09:58.504Z,17.52
2023-05-12T11:12:33.204Z,17.57
2023-05-12T11:15:01.679Z,17.61
2023-05-12T11:17:28.782Z,17.65
2023-05-12T11:19:55.609Z,17.69
2023-05-12T11:22:23.748Z,17.75
2023-05-12T11:24:50.962Z,17.72
2023-05-12T11:27:19.112Z,17.91
2023-05-12T11:29:55.205Z,17.91
2023-05-12T11:32:21.810Z,18.12
2023-05-12T11:34:48.391Z,18.21
2023-05-12T11:37:14.986Z,18.29
2023-05-12T11:39:41.674Z,18.37
2023-05-12T11:42:12.691Z,18.45
2023-05-12T11:44:47.687Z,18.56
2023-05-12T11:47:15.427Z,18.68
2023-05-12T11:49:50.362Z,18.82
2023-05-12T11:52:18.288Z,19.02
2023-05-12T11:54:48.512Z,19.07
2023-05-12T11:57:25.639Z,18.95
2023-05-12T12:00:06.017Z,18.90
2023-05-12T12:02:33.146Z,18.79
2023-05-12T12:05:00.037Z,18.68
2023-05-12T12:07:30.942Z,18.63
2023-05-12T12:09:57.694Z,18.55
2023-05-12T12:12:24.645Z,18.45
2023-05-12T12:14:51.189Z,18.37
2023-05-12T12:17:17.736Z,18.34
2023-05-12T12:19:44.398Z,18.27
2023-05-12T12:22:10.961Z,18.18
2023-05-12T12:24:37.536Z,18.15
2023-05-12T12:27:04.445Z,18.13
2023-05-12T12:29:31.086Z,18.08
2023-05-12T12:31:57.610Z,18.04
2023-05-12T12:34:24.322Z,18.00
2023-05-12T12:36:51.765Z,17.95
2023-05-12T12:39:19.917Z,17.94
2023-05-12T12:41:47.173Z,17.93
2023-05-12T12:44:13.898Z,17.95
2023-05-12T12:46:40.533Z,18.01
2023-05-12T12:49:07.424Z,18.05
2023-05-12T12:51:44.958Z,18.12
2023-05-12T12:54:12.646Z,18.16
2023-05-12T12:56:39.276Z,18.27
2023-05-12T12:59:05.946Z,18.40
2023-05-12T13:01:33.660Z,18.49
2023-05-12T13:04:00.337Z,18.64
2023-05-12T13:06:27.035Z,18.78
2023-05-12T13:08:53.636Z,18.87
2023-05-12T13:11:20.238Z,18.94
2023-05-12T13:13:47.078Z,19.01
2023-05-12T13:16:13.857Z,19.07
2023-05-12T13:18:40.637Z,19.09
2023-05-12T13:21:07.235Z,19.10
2023-05-12T13:23:33.875Z,19.13
2023-05-12T13:26:00.441Z,19.14
2023-05-12T13:28:27.020Z,19.24
2023-05-12T13:30:53.800Z,19.29
2023-05-12T13:33:20.580Z,19.28
2023-05-12T13:35:47.277Z,19.25
2023-05-12T13:38:13.875Z,19.28
2023-05-12T13:40:40.510Z,19.32
2023-05-12T13:43:07.141Z,19.30
2023-05-12T13:45:33.787Z,19.36
2023-05-12T13:48:00.481Z,19.40
2023-05-12T13:50:27.129Z,19.39
2023-05-12T13:52:53.698Z,19.48
2023-05-12T13:55:21.682Z,19.48
2023-05-12T13:57:49.123Z,19.38
2023-05-12T14:00:15.972Z,19.29
2023-05-12T14:02:45.547Z,19.15
2023-05-12T14:05:12.233Z,18.99
2023-05-12T14:07:38.844Z,18.85
2023-05-12T14:10:05.930Z,18.70
2023-05-12T14:12:32.572Z,18.54
2023-05-12T14:15:04.721Z,18.36
2023-05-12T14:17:45.897Z,18.16
2023-05-12T14:20:12.768Z,18.00
2023-05-12T14:22:39.387Z,17.90
2023-05-12T14:25:06.428Z,17.81
2023-05-12T14:27:33.136Z,17.73
2023-05-12T14:29:59.747Z,17.65
2023-05-12T14:32:26.568Z,17.57
2023-05-12T14:34:53.216Z,17.50
2023-05-12T14:37:19.795Z,17.46
2023-05-12T14:39:46.447Z,17.43
2023-05-12T14:42:13.088Z,17.41
2023-05-12T14:44:39.756Z,17.38
2023-05-12T14:47:08.246Z,17.35
2023-05-12T14:49:35.728Z,17.34
2023-05-12T14:52:02.844Z,17.31
2023-05-12T14:54:29.556Z,17.31
2023-05-12T14:56:56.141Z,17.33
2023-05-12T14:59:22.892Z,17.36
2023-05-12T15:01:49.547Z,17.38
2023-05-12T15:04:16.200Z,17.35
2023-05-12T15:06:42.906Z,17.35
2023-05-12T15:09:09.544Z,17.32
2023-05-12T15:11:36.158Z,17.30
2023-05-12T15:14:02.738Z,17.30
2023-05-12T15:16:31.638Z,17.25
2023-05-12T15:18:58.303Z,17.17
2023-05-12T15:21:24.995Z,17.17
2023-05-12T15:23:51.602Z,17.19
2023-05-12T15:26:32.071Z,17.21
2023-05-12T15:29:00.119Z,17.17
2023-05-12T15:31:29.641Z,17.12
2023-05-12T15:33:57.211Z,17.12
2023-05-12T15:36:24.887Z,17.09
2023-05-12T15:38:51.550Z,17.07
2023-05-12T15:41:18.233Z,17.06
2023-05-12T15:43:44.824Z,17.09
2023-05-12T15:46:11.906Z,17.09
2023-05-12T15:48:39.147Z,17.12
2023-05-12T15:51:06.007Z,17.09
2023-05-12T15:53:32.728Z,17.12
2023-05-12T15:56:04.543Z,17.13
2023-05-12T15:58:31.832Z,17.12
2023-05-12T16:00:58.955Z,17.08
2023-05-12T16:03:26.008Z,17.07
2023-05-12T16:05:52.853Z,17.04
2023-05-12T16:08:19.431Z,17.06
2023-05-12T16:10:46.066Z,17.03
2023-05-12T16:13:12.629Z,17.01
2023-05-12T16:15:39.223Z,16.98
2023-05-12T16:18:08.387Z,16.97
2023-05-12T16:20:36.965Z,16.95
2023-05-12T16:23:03.828Z,16.94
2023-05-12T16:25:30.483Z,16.94
2023-05-12T16:27:57.425Z,16.94
2023-05-12T16:30:24.278Z,16.94
2023-05-12T16:32:50.978Z,16.95
2023-05-12T16:35:17.704Z,16.93
2023-05-12T16:37:44.386Z,16.94
2023-05-12T16:40:11.181Z,16.93
2023-05-12T16:42:38.027Z,16.90
2023-05-12T16:45:04.997Z,16.86
2023-05-12T16:47:31.563Z,16.86
2023-05-12T16:49:58.424Z,16.88
2023-05-12T16:52:25.954Z,16.80
2023-05-12T16:54:52.701Z,16.74
2023-05-12T16:57:19.799Z,16.69
2023-05-12T16:59:46.872Z,16.63
2023-05-12T17:02:13.548Z,16.55
2023-05-12T17:04:40.174Z,16.52
2023-05-12T17:07:06.869Z,16.44
2023-05-12T17:09:33.617Z,16.36
2023-05-12T17:12:00.174Z,16.26
2023-05-12T17:14:26.797Z,16.17
2023-05-12T17:16:53.403Z,16.08
2023-05-12T17:19:20.243Z,16.01
2023-05-12T17:21:46.952Z,15.92
2023-05-12T17:24:13.630Z,15.87
2023-05-12T17:26:40.214Z,15.81
2023-05-12T17:29:06.946Z,15.71
2023-05-12T17:31:33.871Z,15.64
2023-05-12T17:34:00.482Z,15.59
2023-05-12T17:36:27.093Z,15.51
2023-05-12T17:38:53.752Z,15.45
2023-05-12T17:41:20.506Z,15.41
2023-05-12T17:43:47.063Z,15.36
2023-05-12T17:46:13.880Z,15.33
2023-05-12T17:48:40.580Z,15.30
2023-05-12T17:51:07.391Z,15.31
2023-05-12T17:53:34.533Z,15.31
2023-05-12T17:56:01.148Z,15.28
2023-05-12T17:58:27.720Z,15.27
2023-05-12T18:00:54.507Z,15.26
2023-05-12T18:03:21.185Z,15.19
2023-05-12T18:05:47.808Z,15.16
2023-05-12T18:08:14.407Z,15.12
2023-05-12T18:10:41.068Z,15.11
2023-05-12T18:13:07.778Z,15.10
2023-05-12T18:15:34.406Z,15.08
2023-05-12T18:18:01.179Z,15.07
2023-05-12T18:20:27.860Z,15.06
2023-05-12T18:22:54.816Z,15.09
2023-05-12T18:25:21.570Z,15.10
2023-05-12T18:27:48.372Z,15.07
2023-05-12T18:30:15.147Z,15.08
2023-05-12T18:32:41.815Z,15.04
2023-05-12T18:35:08.891Z,15.02
2023-05-12T18:37:35.488Z,15.01
2023-05-12T18:40:02.161Z,15.00
2023-05-12T18:42:28.831Z,14.97
2023-05-12T18:44:55.664Z,14.96
2023-05-12T18:47:22.416Z,14.94
2023-05-12T18:49:49.029Z,14.92
2023-05-12T18:52:15.607Z,14.90
2023-05-12T18:54:42.244Z,14.89
2023-05-12T18:57:08.852Z,14.88
2023-05-12T18:59:35.507Z,14.84
2023-05-12T19:02:02.370Z,14.86
2023-05-12T19:04:29.117Z,14.83
2023-05-12T19:06:55.731Z,14.81
2023-05-12T19:09:22.345Z,14.76
2023-05-12T19:11:48.915Z,14.73
2023-05-12T19:14:15.499Z,14.69
2023-05-12T19:16:42.223Z,14.67
2023-05-12T19:19:08.923Z,14.62
2023-05-12T19:21:35.565Z,14.58
2023-05-12T19:24:02.202Z,14.55
2023-05-12T19:26:29.258Z,14.55
2023-05-12T19:28:58.720Z,14.52
2023-05-12T19:31:25.332Z,14.52
2023-05-12T19:33:52.286Z,14.53
2023-05-12T19:36:18.979Z,14.52
2023-05-12T19:38:45.587Z,14.49
2023-05-12T19:41:12.248Z,14.47
2023-05-12T19:43:38.860Z,14.38
2023-05-12T19:46:05.545Z,14.37
2023-05-12T19:48:32.257Z,14.37
2023-05-12T19:50:58.879Z,14.34
2023-05-12T19:53:25.442Z,14.31
2023-05-12T19:55:52.149Z,14.27
2023-05-12T19:58:18.739Z,14.25
2023-05-12T20:00:52.875Z,14.25
2023-05-12T20:03:19.639Z,14.25
2023-05-12T20:05:48.436Z,14.26
2023-05-12T20:08:15.725Z,14.24
2023-05-12T20:10:42.527Z,14.17
2023-05-12T20:13:09.232Z,14.13
2023-05-12T20:15:35.999Z,14.11
2023-05-12T20:18:02.812Z,14.07
2023-05-12T20:20:29.488Z,14.04
2023-05-12T20:22:56.144Z,14.03
2023-05-12T20:25:23.022Z,14.02
2023-05-12T20:27:49.809Z,14.01
2023-05-12T20:30:16.428Z,14.00
2023-05-12T20:32:43.289Z,13.98
2023-05-12T20:35:09.938Z,13.99
2023-05-12T20:37:36.572Z,13.97
2023-05-12T20:40:03.354Z,13.97
2023-05-12T20:42:29.925Z,13.95
2023-05-12T20:44:56.578Z,13.97
2023-05-12T20:47:23.270Z,13.98
2023-05-12T20:49:54.939Z,13.97
2023-05-12T20:52:21.583Z,13.97
2023-05-12T20:54:48.309Z,13.99
2023-05-12T20:57:14.896Z,14.00
2023-05-12T20:59:41.528Z,14.00
2023-05-12T21:02:08.288Z,14.01
2023-05-12T21:04:34.941Z,14.02
2023-05-12T21:07:01.611Z,14.02
2023-05-12T21:09:28.186Z,14.00
2023-05-12T21:11:54.827Z,13.99
2023-05-12T21:14:21.444Z,14.00
2023-05-12T21:16:48.040Z,13.96
2023-05-12T21:19:14.685Z,13.94
2023-05-12T21:21:41.338Z,13.93
2023-05-12T21:24:08.067Z,13.95
2023-05-12T21:26:34.666Z,13.94
2023-05-12T21:29:01.272Z,13.95
2023-05-12T21:31:27.955Z,13.94
2023-05-12T21:33:54.624Z,13.93
2023-05-12T21:36:21.266Z,13.91
2023-05-12T21:38:47.850Z,13.92
2023-05-12T21:41:14.532Z,13.95
2023-05-12T21:43:41.091Z,13.92
2023-05-12T21:46:07.842Z,13.91
2023-05-12T21:48:34.565Z,13.89
2023-05-12T21:51:02.692Z,13.86
2023-05-12T21:53:29.347Z,13.75
2023-05-12T21:55:56.033Z,13.82
2023-05-12T21:58:22.700Z,13.82
2023-05-12T22:00:52.673Z,13.83
2023-05-12T22:03:20.037Z,13.81
2023-05-12T22:05:46.803Z,13.77
2023-05-12T22:08:13.367Z,13.72
2023-05-12T22:10:40.099Z,13.70
2023-05-12T22:13:06.672Z,13.70
2023-05-12T22:15:33.549Z,13.70
2023-05-12T22:18:00.243Z,13.70
2023-05-12T22:20:27.360Z,13.66
2023-05-12T22:22:53.951Z,13.65
2023-05-12T22:25:20.680Z,13.59
2023-05-12T22:27:47.270Z,13.56
2023-05-12T22:30:14.244Z,13.55
2023-05-12T22:32:40.884Z,13.53
2023-05-12T22:35:09.082Z,13.53
2023-05-12T22:37:35.681Z,13.43
2023-05-12T22:40:02.531Z,13.51
2023-05-12T22:42:29.260Z,13.53
2023-05-12T22:44:55.805Z,13.50
2023-05-12T22:47:22.431Z,13.49
2023-05-12T22:49:49.198Z,13.48
2023-05-12T22:52:15.847Z,13.48
2023-05-12T22:54:42.551Z,13.46
2023-05-12T22:57:09.274Z,13.49
2023-05-12T22:59:35.919Z,13.46
2023-05-12T23:02:02.586Z,13.48
2023-05-12T23:04:29.307Z,13.49
2023-05-12T23:06:55.898Z,13.50
2023-05-12T23:09:22.522Z,13.48
2023-05-12T23:11:49.120Z,13.48
2023-05-12T23:14:15.793Z,13.49
2023-05-12T23:16:42.514Z,13.49
2023-05-12T23:19:09.359Z,13.47
2023-05-12T23:21:36.050Z,13.44
2023-05-12T23:24:02.660Z,13.43
2023-05-12T23:26:29.311Z,13.48
2023-05-12T23:28:55.994Z,13.43
2023-05-12T23:31:22.716Z,13.42
2023-05-12T23:33:49.536Z,13.43
2023-05-12T23:36:16.128Z,13.43
2023-05-12T23:38:42.845Z,13.41
2023-05-12T23:41:09.484Z,13.38
2023-05-12T23:43:39.122Z,13.36
2023-05-12T23:46:05.926Z,13.37
2023-05-12T23:48:32.628Z,13.35
2023-05-12T23:50:59.289Z,13.28
2023-05-12T23:53:25.871Z,13.23
2023-05-12T23:55:52.499Z,13.23
2023-05-12T23:58:19.224Z,13.20
